createdAt,value
2023-08-04T00:00:14.643Z,74683.97
2023-08-04T00:03:01.041Z,74683.97
2023-08-04T00:05:48.775Z,74681.94
2023-08-04T00:08:34.918Z,74683.97
2023-08-04T00:11:21.136Z,74688.06
2023-08-04T00:14:07.916Z,74688.06
2023-08-04T00:16:54.037Z,74692.13
2023-08-04T00:19:40.095Z,74700.28
2023-08-04T00:22:28.039Z,74714.53
2023-08-04T00:25:14.501Z,74720.66
2023-08-04T00:28:00.876Z,74718.63
2023-08-04T00:30:47.176Z,74720.66
2023-08-04T00:33:33.452Z,74716.59
2023-08-04T00:36:19.668Z,74712.50
2023-08-04T00:39:07.221Z,74700.28
2023-08-04T00:41:53.413Z,74702.31
2023-08-04T00:44:39.727Z,74702.31
2023-08-04T00:47:26.875Z,74708.44
2023-08-04T00:50:14.174Z,74714.53
2023-08-04T00:53:02.134Z,74718.63
2023-08-04T00:55:51.147Z,74720.66
2023-08-04T00:58:37.449Z,74732.88
2023-08-04T01:01:24.308Z,74741.03
2023-08-04T01:04:11.098Z,74749.19
2023-08-04T01:07:07.503Z,74751.22
2023-08-04T01:10:04.735Z,74757.34
2023-08-04T01:12:59.546Z,74753.28
2023-08-04T01:15:46.298Z,74761.41
2023-08-04T01:18:32.738Z,74767.53
2023-08-04T01:21:20.311Z,74761.41
2023-08-04T01:24:06.886Z,74765.50
2023-08-04T01:26:53.434Z,74769.56
2023-08-04T01:29:41.179Z,74771.59
2023-08-04T01:32:27.619Z,74777.72
2023-08-04T01:35:14.493Z,74785.88
2023-08-04T01:38:02.076Z,74802.19
2023-08-04T01:40:48.171Z,74804.22
2023-08-04T01:43:34.334Z,74798.09
2023-08-04T01:46:20.692Z,74798.09
2023-08-04T01:49:07.266Z,74789.94
2023-08-04T01:51:53.540Z,74773.66
2023-08-04T01:54:41.130Z,74792.00
2023-08-04T01:57:28.038Z,74806.25
2023-08-04T02:00:15.707Z,74798.09
2023-08-04T02:03:02.007Z,74798.09
2023-08-04T02:05:50.018Z,74806.25
2023-08-04T02:08:36.450Z,74804.22
2023-08-04T02:11:24.055Z,74802.19
2023-08-04T02:14:10.378Z,74802.19
2023-08-04T02:16:57.232Z,74802.19
2023-08-04T02:19:43.821Z,74794.03
2023-08-04T02:22:30.141Z,74785.88
2023-08-04T02:25:16.772Z,74789.94
2023-08-04T02:28:05.092Z,74787.91
2023-08-04T02:30:51.360Z,74787.91
2023-08-04T02:33:37.592Z,74773.66
2023-08-04T02:36:25.205Z,74773.66
2023-08-04T02:39:11.598Z,74781.81
2023-08-04T02:41:58.706Z,74765.50
2023-08-04T02:44:46.524Z,74769.56
2023-08-04T02:47:32.641Z,74761.41
2023-08-04T02:50:19.103Z,74749.19
2023-08-04T02:53:05.569Z,74749.19
2023-08-04T02:55:51.837Z,74761.41
2023-08-04T02:58:38.838Z,74769.56
2023-08-04T03:01:26.606Z,74767.53
2023-08-04T03:04:14.016Z,74767.53
2023-08-04T03:07:00.081Z,74765.50
2023-08-04T03:09:46.255Z,74761.41
2023-08-04T03:12:32.461Z,74767.53
2023-08-04T03:15:18.630Z,74777.72
2023-08-04T03:18:06.321Z,74781.81
2023-08-04T03:20:52.874Z,74775.69
2023-08-04T03:23:38.948Z,74775.69
2023-08-04T03:26:25.329Z,74785.88
2023-08-04T03:29:12.558Z,74789.94
2023-08-04T03:31:58.822Z,74798.09
2023-08-04T03:34:46.413Z,74798.09
2023-08-04T03:37:32.500Z,74798.09
2023-08-04T03:40:18.737Z,74781.81
2023-08-04T03:43:06.595Z,74783.84
2023-08-04T03:45:52.823Z,74781.81
2023-08-04T03:48:38.906Z,74769.56
2023-08-04T03:51:26.516Z,74769.56
2023-08-04T03:54:12.689Z,74769.56
2023-08-04T03:56:58.933Z,74765.50
2023-08-04T03:59:45.708Z,74765.50
2023-08-04T04:02:31.983Z,74759.38
2023-08-04T04:05:18.869Z,74757.34
2023-08-04T04:08:06.725Z,74749.19
2023-08-04T04:10:53.266Z,74745.13
2023-08-04T04:13:41.542Z,74765.50
2023-08-04T04:16:31.096Z,74769.56
2023-08-04T04:19:17.781Z,74769.56
2023-08-04T04:22:04.169Z,74773.66
2023-08-04T04:24:51.825Z,74781.81
2023-08-04T04:27:37.925Z,74789.94
2023-08-04T04:30:24.162Z,74792.00
2023-08-04T04:33:10.872Z,74779.75
2023-08-04T04:35:57.508Z,74779.75
2023-08-04T04:38:44.332Z,74767.53
2023-08-04T04:41:33.030Z,74761.41
2023-08-04T04:44:19.277Z,74757.34
2023-08-04T04:47:06.173Z,74741.03
2023-08-04T04:49:52.407Z,74724.75
2023-08-04T04:52:39.841Z,74728.81
2023-08-04T04:55:26.210Z,74728.81
2023-08-04T04:58:14.373Z,74720.66
2023-08-04T05:01:05.051Z,74712.50
2023-08-04T05:03:51.396Z,74710.47
2023-08-04T05:06:37.605Z,74696.19
2023-08-04T05:09:23.748Z,74694.16
2023-08-04T05:12:09.882Z,74690.09
2023-08-04T05:14:57.416Z,74700.28
2023-08-04T05:17:44.274Z,74692.13
2023-08-04T05:20:30.852Z,74671.75
2023-08-04T05:23:17.515Z,74661.56
2023-08-04T05:26:03.729Z,74657.47
2023-08-04T05:28:49.892Z,74659.53
2023-08-04T05:31:37.463Z,74653.41
2023-08-04T05:34:23.693Z,74659.53
2023-08-04T05:37:10.176Z,74675.81
2023-08-04T05:39:56.928Z,74681.94
2023-08-04T05:42:43.423Z,74692.13
2023-08-04T05:45:29.742Z,74712.50
2023-08-04T05:48:17.517Z,74716.59
2023-08-04T05:51:04.312Z,74716.59
2023-08-04T05:53:50.909Z,74716.59
2023-08-04T05:56:37.448Z,74716.59
2023-08-04T05:59:24.084Z,74714.53
2023-08-04T06:02:10.836Z,74720.66
2023-08-04T06:04:58.333Z,74722.69
2023-08-04T06:07:44.999Z,74712.50
2023-08-04T06:10:31.123Z,74708.44
2023-08-04T06:13:17.810Z,74700.28
2023-08-04T06:16:04.470Z,74698.25
2023-08-04T06:18:51.065Z,74688.06
2023-08-04T06:21:38.934Z,74686.00
2023-08-04T06:24:28.844Z,74671.75
2023-08-04T06:27:15.125Z,74671.75
2023-08-04T06:30:02.188Z,74659.53
2023-08-04T06:32:49.227Z,74665.63
2023-08-04T06:35:35.799Z,74665.63
2023-08-04T06:38:23.486Z,74663.59
2023-08-04T06:41:09.837Z,74645.25
2023-08-04T06:43:56.173Z,74635.06
2023-08-04T06:46:43.381Z,74618.75
2023-08-04T06:49:30.186Z,74602.47
2023-08-04T06:52:18.054Z,74606.53
2023-08-04T06:55:06.765Z,74602.47
2023-08-04T06:57:53.119Z,74594.31
2023-08-04T07:00:39.428Z,74598.38
2023-08-04T07:03:26.340Z,74588.19
2023-08-04T07:06:13.181Z,74594.31
2023-08-04T07:08:59.496Z,74588.19
2023-08-04T07:11:47.371Z,74580.03
2023-08-04T07:14:33.773Z,74557.63
2023-08-04T07:17:20.154Z,74545.41
2023-08-04T07:20:07.885Z,74535.22
2023-08-04T07:22:54.802Z,74535.22
2023-08-04T07:25:41.087Z,74533.16
2023-08-04T07:28:29.048Z,74527.06
2023-08-04T07:31:15.581Z,74527.06
2023-08-04T07:34:02.864Z,74537.25
2023-08-04T07:36:49.458Z,74533.16
2023-08-04T07:39:35.690Z,74527.06
2023-08-04T07:42:21.946Z,74520.94
2023-08-04T07:45:10.983Z,74514.84
2023-08-04T07:47:57.593Z,74498.53
2023-08-04T07:50:45.409Z,74480.19
2023-08-04T07:53:31.870Z,74467.97
2023-08-04T07:56:18.827Z,74459.81
2023-08-04T07:59:05.611Z,74447.59
2023-08-04T08:01:53.202Z,74439.44
2023-08-04T08:04:39.462Z,74427.22
2023-08-04T08:07:39.644Z,74402.75
2023-08-04T08:10:30.178Z,74398.69
2023-08-04T08:13:16.464Z,74398.69
2023-08-04T08:16:08.484Z,74398.69
2023-08-04T08:18:56.201Z,74398.69
2023-08-04T08:21:43.065Z,74402.75
2023-08-04T08:24:29.256Z,74414.97
2023-08-04T08:27:15.632Z,74408.88
2023-08-04T08:30:02.120Z,74406.81
2023-08-04T08:32:48.877Z,74406.81
2023-08-04T08:35:37.563Z,74410.91
2023-08-04T08:38:23.903Z,74421.09
2023-08-04T08:41:12.417Z,74427.22
2023-08-04T08:43:59.159Z,74427.22
2023-08-04T08:46:45.655Z,74427.22
2023-08-04T08:49:39.089Z,74410.91
2023-08-04T08:52:31.501Z,74392.56
2023-08-04T08:55:18.415Z,74368.09
2023-08-04T08:58:05.917Z,74349.78
2023-08-04T09:00:52.606Z,74315.13
2023-08-04T09:03:39.507Z,74321.25
2023-08-04T09:06:26.489Z,74306.97
2023-08-04T09:09:14.070Z,74280.50
2023-08-04T09:12:01.256Z,74276.41
2023-08-04T09:14:55.090Z,74264.19
2023-08-04T09:17:43.120Z,74254.00
2023-08-04T09:20:30.983Z,74260.09
2023-08-04T09:23:17.449Z,74262.16
2023-08-04T09:26:05.031Z,74278.44
2023-08-04T09:29:05.473Z,74292.72
2023-08-04T09:31:52.058Z,74306.97
2023-08-04T09:34:38.684Z,74311.06
2023-08-04T09:37:25.003Z,74296.78
2023-08-04T09:40:16.191Z,74317.16
2023-08-04T09:43:04.847Z,74321.25
2023-08-04T09:45:56.812Z,74337.53
2023-08-04T09:48:43.066Z,74343.66
2023-08-04T09:51:29.371Z,74364.03
2023-08-04T09:54:15.845Z,74366.06
2023-08-04T09:57:03.291Z,74370.16
2023-08-04T09:59:51.170Z,74370.16
2023-08-04T10:02:38.222Z,74378.28
2023-08-04T10:05:26.787Z,74382.38
2023-08-04T10:08:13.639Z,74386.44
2023-08-04T10:11:00.892Z,74376.25
2023-08-04T10:13:50.984Z,74368.09
2023-08-04T10:16:40.521Z,74366.06
2023-08-04T10:19:30.047Z,74370.16
2023-08-04T10:22:18.318Z,74368.09
2023-08-04T10:25:14.855Z,74366.06
2023-08-04T10:28:01.135Z,74372.19
2023-08-04T10:30:50.101Z,74380.34
2023-08-04T10:33:38.439Z,74382.38
2023-08-04T10:36:25.776Z,74386.44
2023-08-04T10:39:28.472Z,74376.25
2023-08-04T10:42:23.328Z,74382.38
2023-08-04T10:45:11.129Z,74390.53
2023-08-04T10:48:09.662Z,74394.59
2023-08-04T10:50:59.275Z,74382.38
2023-08-04T10:53:45.595Z,74370.16
2023-08-04T10:56:31.911Z,74370.16
2023-08-04T10:59:17.979Z,74359.97
2023-08-04T11:02:04.368Z,74362.00
2023-08-04T11:04:51.453Z,74362.00
2023-08-04T11:07:39.210Z,74368.09
2023-08-04T11:10:29.240Z,74382.38
2023-08-04T11:13:17.470Z,74374.22
2023-08-04T11:16:04.323Z,74386.44
2023-08-04T11:18:51.764Z,74402.75
2023-08-04T11:21:39.424Z,74390.53
2023-08-04T11:24:29.286Z,74390.53
2023-08-04T11:27:16.644Z,74386.44
2023-08-04T11:30:02.824Z,74388.50
2023-08-04T11:32:51.535Z,74392.56
2023-08-04T11:35:38.293Z,74394.59
2023-08-04T11:38:24.677Z,74406.81
2023-08-04T11:41:14.755Z,74412.94
2023-08-04T11:44:01.625Z,74414.97
2023-08-04T11:46:48.250Z,74423.13
2023-08-04T11:49:36.465Z,74417.00
2023-08-04T11:52:24.701Z,74419.06
2023-08-04T11:55:11.142Z,74410.91
2023-08-04T11:57:58.644Z,74412.94
2023-08-04T12:00:46.228Z,74404.78
2023-08-04T12:03:47.616Z,74402.75
2023-08-04T12:06:34.813Z,74406.81
2023-08-04T12:09:21.318Z,74404.78
2023-08-04T12:12:09.770Z,74419.06
2023-08-04T12:15:02.142Z,74419.06
2023-08-04T12:17:49.114Z,74423.13
2023-08-04T12:20:35.691Z,74425.16
2023-08-04T12:23:21.981Z,74427.22
2023-08-04T12:26:08.605Z,74419.06
2023-08-04T12:28:55.065Z,74410.91
2023-08-04T12:31:43.046Z,74419.06
2023-08-04T12:34:29.952Z,74429.25
2023-08-04T12:37:16.198Z,74433.31
2023-08-04T12:40:02.351Z,74425.16
2023-08-04T12:42:48.648Z,74427.22
2023-08-04T12:45:35.008Z,74414.97
2023-08-04T12:48:22.862Z,74402.75
2023-08-04T12:51:09.671Z,74421.09
2023-08-04T12:53:55.850Z,74437.41
2023-08-04T12:56:42.120Z,74439.44
2023-08-04T12:59:28.447Z,74435.34
2023-08-04T13:02:14.711Z,74435.34
2023-08-04T13:05:02.954Z,74441.47
2023-08-04T13:07:49.690Z,74431.28
2023-08-04T13:10:36.466Z,74425.16
2023-08-04T13:13:23.168Z,74427.22
2023-08-04T13:16:11.637Z,74425.16
2023-08-04T13:18:58.140Z,74406.81
2023-08-04T13:21:45.761Z,74402.75
2023-08-04T13:24:32.601Z,74414.97
2023-08-04T13:27:18.761Z,74431.28
2023-08-04T13:30:05.632Z,74435.34
2023-08-04T13:32:52.379Z,74437.41
2023-08-04T13:35:39.055Z,74447.59
2023-08-04T13:38:26.527Z,74439.44
2023-08-04T13:41:13.097Z,74435.34
2023-08-04T13:43:59.421Z,74443.50
2023-08-04T13:46:45.537Z,74441.47
2023-08-04T13:49:32.258Z,74439.44
2023-08-04T13:52:18.583Z,74427.22
2023-08-04T13:55:06.882Z,74423.13
2023-08-04T13:57:53.435Z,74410.91
2023-08-04T14:00:39.697Z,74398.69
2023-08-04T14:03:25.913Z,74378.28
2023-08-04T14:06:12.653Z,74349.78
2023-08-04T14:08:58.887Z,74349.78
2023-08-04T14:11:46.611Z,74353.84
2023-08-04T14:14:35.717Z,74341.63
2023-08-04T14:17:23.264Z,74345.69
2023-08-04T14:20:15.662Z,74333.47
2023-08-04T14:23:02.143Z,74321.25
2023-08-04T14:25:48.998Z,74317.16
2023-08-04T14:28:37.084Z,74321.25
2023-08-04T14:31:23.402Z,74327.34
2023-08-04T14:34:10.026Z,74337.53
2023-08-04T14:36:56.255Z,74335.50
2023-08-04T14:39:42.702Z,74341.63
2023-08-04T14:42:28.988Z,74337.53
2023-08-04T14:45:17.115Z,74349.78
2023-08-04T14:48:03.710Z,74366.06
2023-08-04T14:50:50.239Z,74386.44
2023-08-04T14:53:36.508Z,74402.75
2023-08-04T14:56:24.032Z,74402.75
2023-08-04T14:59:10.742Z,74400.72
2023-08-04T15:01:58.899Z,74410.91
2023-08-04T15:04:45.335Z,74421.09
2023-08-04T15:07:31.809Z,74433.31
2023-08-04T15:10:18.205Z,74445.53
2023-08-04T15:13:04.841Z,74447.59
2023-08-04T15:15:51.042Z,74451.66
2023-08-04T15:18:38.910Z,74467.97
2023-08-04T15:21:25.290Z,74482.22
2023-08-04T15:24:11.493Z,74492.41
2023-08-04T15:26:57.665Z,74492.41
2023-08-04T15:29:43.908Z,74498.53
2023-08-04T15:32:30.179Z,74496.50
2023-08-04T15:35:18.378Z,74492.41
2023-08-04T15:38:05.004Z,74484.25
2023-08-04T15:41:00.723Z,74480.19
2023-08-04T15:43:47.325Z,74480.19
2023-08-04T15:46:33.532Z,74472.03
2023-08-04T15:49:20.285Z,74459.81
2023-08-04T15:52:09.188Z,74459.81
2023-08-04T15:55:12.067Z,74465.91
2023-08-04T15:57:59.770Z,74474.06
2023-08-04T16:00:46.100Z,74476.13
2023-08-04T16:03:32.382Z,74488.34
2023-08-04T16:06:18.550Z,74504.63
2023-08-04T16:09:06.289Z,74500.56
2023-08-04T16:11:52.868Z,74480.19
2023-08-04T16:14:39.069Z,74480.19
2023-08-04T16:17:26.008Z,74482.22
2023-08-04T16:20:12.823Z,74500.56
2023-08-04T16:23:01.121Z,74500.56
2023-08-04T16:25:49.480Z,74508.72
2023-08-04T16:28:35.848Z,74500.56
2023-08-04T16:31:22.056Z,74490.38
2023-08-04T16:34:10.313Z,74494.44
2023-08-04T16:36:56.580Z,74496.50
2023-08-04T16:39:42.773Z,74500.56
2023-08-04T16:42:30.502Z,74504.63
2023-08-04T16:45:18.316Z,74508.72
2023-08-04T16:48:05.018Z,74512.78
2023-08-04T16:50:51.465Z,74520.94
2023-08-04T16:53:37.673Z,74525.03
2023-08-04T16:56:24.085Z,74525.03
2023-08-04T16:59:12.162Z,74533.16
2023-08-04T17:01:58.473Z,74545.41
2023-08-04T17:04:44.823Z,74549.47
2023-08-04T17:07:31.133Z,74553.56
2023-08-04T17:10:17.564Z,74561.69
2023-08-04T17:13:03.816Z,74578.00
2023-08-04T17:15:51.409Z,74569.84
2023-08-04T17:18:38.377Z,74569.84
2023-08-04T17:21:24.734Z,74569.84
2023-08-04T17:24:10.880Z,74575.97
2023-08-04T17:26:57.211Z,74580.03
2023-08-04T17:29:44.548Z,74582.09
2023-08-04T17:32:34.113Z,74588.19
2023-08-04T17:35:21.270Z,74592.28
2023-08-04T17:38:08.134Z,74592.28
2023-08-04T17:40:58.779Z,74596.34
2023-08-04T17:43:44.842Z,74594.31
2023-08-04T17:46:31.221Z,74602.47
2023-08-04T17:49:19.903Z,74606.53
2023-08-04T17:52:08.083Z,74610.63
2023-08-04T17:54:55.419Z,74612.66
2023-08-04T17:57:41.752Z,74618.75
2023-08-04T18:00:27.944Z,74622.84
2023-08-04T18:03:14.324Z,74631.00
2023-08-04T18:06:05.573Z,74626.91
2023-08-04T18:08:52.190Z,74643.22
2023-08-04T18:11:38.331Z,74653.41
2023-08-04T18:14:24.565Z,74653.41
2023-08-04T18:17:10.880Z,74657.47
2023-08-04T18:19:57.633Z,74661.56
2023-08-04T18:22:47.195Z,74667.69
2023-08-04T18:25:35.346Z,74671.75
2023-08-04T18:28:22.030Z,74683.97
2023-08-04T18:31:08.581Z,74686.00
2023-08-04T18:33:55.334Z,74698.25
2023-08-04T18:36:41.731Z,74704.34
2023-08-04T18:39:29.162Z,74700.28
2023-08-04T18:42:15.938Z,74706.41
2023-08-04T18:45:02.307Z,74712.50
2023-08-04T18:47:48.419Z,74720.66
2023-08-04T18:50:35.201Z,74720.66
2023-08-04T18:53:21.578Z,74716.59
2023-08-04T18:56:09.237Z,74720.66
2023-08-04T18:58:55.645Z,74720.66
2023-08-04T19:01:41.934Z,74722.69
2023-08-04T19:04:28.190Z,74714.53
2023-08-04T19:07:14.737Z,74714.53
2023-08-04T19:10:04.788Z,74712.50
2023-08-04T19:12:52.965Z,74712.50
2023-08-04T19:15:39.026Z,74712.50
2023-08-04T19:18:25.386Z,74718.63
2023-08-04T19:21:13.557Z,74716.59
2023-08-04T19:23:59.997Z,74710.47
2023-08-04T19:26:46.254Z,74714.53
2023-08-04T19:29:34.147Z,74714.53
2023-08-04T19:32:20.657Z,74720.66
2023-08-04T19:35:08.059Z,74722.69
2023-08-04T19:37:54.422Z,74728.81
2023-08-04T19:40:40.645Z,74724.75
2023-08-04T19:43:27.647Z,74728.81
2023-08-04T19:46:17.027Z,74728.81
2023-08-04T19:49:03.808Z,74745.13
2023-08-04T19:51:53.518Z,74749.19
2023-08-04T19:54:42.223Z,74753.28
2023-08-04T19:57:29.371Z,74759.38
2023-08-04T20:00:15.921Z,74761.41
2023-08-04T20:03:03.809Z,74761.41
2023-08-04T20:05:50.678Z,74759.38
2023-08-04T20:08:36.835Z,74753.28
2023-08-04T20:11:23.230Z,74751.22
2023-08-04T20:14:09.589Z,74753.28
2023-08-04T20:16:55.951Z,74751.22
2023-08-04T20:19:43.624Z,74761.41
2023-08-04T20:22:31.692Z,74757.34
2023-08-04T20:25:18.575Z,74765.50
2023-08-04T20:28:07.342Z,74765.50
2023-08-04T20:31:00.857Z,74769.56
2023-08-04T20:33:47.430Z,74769.56
2023-08-04T20:36:35.047Z,74765.50
2023-08-04T20:39:21.322Z,74765.50
2023-08-04T20:42:07.864Z,74765.50
2023-08-04T20:44:55.046Z,74767.53
2023-08-04T20:47:41.466Z,74765.50
2023-08-04T20:50:28.069Z,74769.56
2023-08-04T20:53:15.508Z,74775.69
2023-08-04T20:56:02.991Z,74765.50
2023-08-04T20:58:49.415Z,74761.41
2023-08-04T21:01:35.668Z,74761.41
2023-08-04T21:04:22.458Z,74761.41
2023-08-04T21:07:09.390Z,74765.50
2023-08-04T21:09:57.215Z,74769.56
2023-08-04T21:12:43.481Z,74769.56
2023-08-04T21:15:30.705Z,74765.50
2023-08-04T21:18:17.753Z,74765.50
2023-08-04T21:21:04.471Z,74765.50
2023-08-04T21:23:51.534Z,74775.69
2023-08-04T21:26:39.088Z,74775.69
2023-08-04T21:29:25.359Z,74777.72
2023-08-04T21:32:12.012Z,74777.72
2023-08-04T21:34:59.345Z,74781.81
2023-08-04T21:37:45.836Z,74781.81
2023-08-04T21:40:32.702Z,74783.84
2023-08-04T21:43:21.340Z,74777.72
2023-08-04T21:46:11.672Z,74785.88
2023-08-04T21:48:59.183Z,74781.81
2023-08-04T21:51:46.062Z,74773.66
2023-08-04T21:54:32.013Z,74773.66
2023-08-04T21:57:18.320Z,74777.72
2023-08-04T22:00:13.641Z,74781.81
2023-08-04T22:03:00.526Z,74775.69
2023-08-04T22:05:47.392Z,74767.53
2023-08-04T22:08:34.007Z,74763.47
2023-08-04T22:11:20.356Z,74769.56
2023-08-04T22:14:06.696Z,74765.50
2023-08-04T22:16:54.548Z,74757.34
2023-08-04T22:19:41.155Z,74749.19
2023-08-04T22:22:27.328Z,74747.16
2023-08-04T22:25:14.174Z,74753.28
2023-08-04T22:28:00.308Z,74757.34
2023-08-04T22:30:46.619Z,74757.34
2023-08-04T22:33:34.992Z,74761.41
2023-08-04T22:36:21.364Z,74765.50
2023-08-04T22:39:07.610Z,74753.28
2023-08-04T22:41:53.861Z,74751.22
2023-08-04T22:44:40.292Z,74753.28
2023-08-04T22:47:27.821Z,74745.13
2023-08-04T22:50:16.770Z,74741.03
2023-08-04T22:53:03.315Z,74736.97
2023-08-04T22:55:49.411Z,74732.88
2023-08-04T22:58:36.079Z,74741.03
2023-08-04T23:01:22.365Z,74741.03
2023-08-04T23:04:08.646Z,74732.88
2023-08-04T23:06:56.114Z,74732.88
2023-08-04T23:09:44.415Z,74728.81
2023-08-04T23:12:30.892Z,74716.59
2023-08-04T23:15:17.125Z,74720.66
2023-08-04T23:18:03.299Z,74720.66
2023-08-04T23:20:50.558Z,74724.75
2023-08-04T23:23:38.858Z,74724.75
2023-08-04T23:26:25.447Z,74728.81
2023-08-04T23:29:11.572Z,74724.75
2023-08-04T23:31:57.822Z,74732.88
2023-08-04T23:34:43.929Z,74726.78
2023-08-04T23:37:30.250Z,74720.66
2023-08-04T23:40:17.938Z,74718.63
2023-08-04T23:43:04.388Z,74714.53
2023-08-04T23:45:50.683Z,74720.66
2023-08-04T23:48:37.559Z,74724.75
2023-08-04T23:51:23.720Z,74714.53
2023-08-04T23:54:09.864Z,74706.41
2023-08-04T23:56:57.315Z,74704.34
2023-08-04T23:59:43.794Z,74696.19
